createdAt,value
2022-12-16T00:02:02.386Z,39.60
2022-12-16T00:07:03.856Z,36.73
2022-12-16T00:12:05.605Z,40.70
2022-12-16T00:17:07.109Z,41.50
2022-12-16T00:22:08.679Z,40.80
2022-12-16T00:27:10.743Z,45.87
2022-12-16T00:32:12.399Z,43.20
2022-12-16T00:37:14.090Z,49.40
2022-12-16T00:42:15.497Z,46.27
2022-12-16T00:47:16.987Z,47.73
2022-12-16T00:52:18.396Z,46.37
2022-12-16T00:57:20.860Z,46.67
2022-12-16T01:02:22.470Z,48.63
2022-12-16T01:07:24.325Z,47.70
2022-12-16T01:12:25.752Z,44.17
2022-12-16T01:17:27.608Z,47.97
2022-12-16T01:22:32.601Z,45.53
2022-12-16T01:27:34.216Z,44.97
2022-12-16T01:32:36.029Z,46.90
2022-12-16T01:37:37.603Z,46.10
2022-12-16T01:42:39.127Z,58.00
2022-12-16T01:47:40.631Z,51.13
2022-12-16T01:52:46.406Z,46.97
2022-12-16T01:57:51.923Z,48.43
2022-12-16T02:02:58.284Z,54.10
2022-12-16T02:08:14.244Z,51.43
2022-12-16T02:13:25.769Z,46.80
2022-12-16T02:18:52.194Z,50.80
2022-12-16T02:24:29.845Z,51.87
2022-12-16T02:29:56.267Z,52.50
2022-12-16T02:35:26.946Z,52.00
2022-12-16T02:40:41.892Z,53.00
2022-12-16T02:45:44.300Z,52.87
2022-12-16T02:50:50.704Z,53.53
2022-12-16T02:56:10.687Z,49.03
2022-12-16T03:01:22.747Z,50.10
2022-12-16T03:06:26.434Z,48.83
2022-12-16T03:11:30.623Z,50.70
2022-12-16T03:16:34.584Z,52.25
2022-12-16T03:21:47.731Z,50.75
2022-12-16T03:27:10.707Z,47.33
2022-12-16T03:32:17.949Z,49.83
2022-12-16T03:37:23.431Z,45.97
2022-12-16T03:42:25.150Z,47.17
2022-12-16T03:47:29.131Z,44.57
2022-12-16T03:52:30.729Z,46.45
2022-12-16T03:57:32.211Z,47.63
2022-12-16T04:02:33.886Z,45.67
2022-12-16T04:07:35.512Z,46.53
2022-12-16T04:12:55.605Z,44.17
2022-12-16T04:18:20.283Z,45.27
2022-12-16T04:23:43.318Z,44.23
2022-12-16T04:28:44.732Z,50.30
2022-12-16T04:34:04.955Z,45.10
2022-12-16T04:39:25.071Z,44.67
2022-12-16T04:44:45.156Z,45.10
2022-12-16T04:50:05.080Z,40.47
2022-12-16T04:55:26.158Z,37.00
2022-12-16T05:00:46.193Z,35.43
2022-12-16T05:06:06.343Z,35.90
2022-12-16T05:11:26.239Z,32.47
2022-12-16T05:16:46.467Z,32.47
2022-12-16T05:22:06.547Z,28.67
2022-12-16T05:27:26.708Z,28.90
2022-12-16T05:32:46.945Z,24.70
2022-12-16T05:38:07.111Z,21.27
2022-12-16T05:43:27.347Z,21.87
2022-12-16T05:48:47.962Z,21.63
2022-12-16T05:54:08.015Z,17.93
2022-12-16T05:59:27.839Z,16.50
2022-12-16T06:04:47.862Z,16.93
2022-12-16T06:10:08.070Z,19.00
2022-12-16T06:15:29.210Z,20.70
2022-12-16T06:20:49.295Z,23.80
2022-12-16T06:26:09.548Z,22.47
2022-12-16T06:31:30.172Z,27.80
2022-12-16T06:36:50.128Z,22.40
2022-12-16T06:42:10.212Z,19.77
2022-12-16T06:47:30.485Z,21.27
2022-12-16T06:52:50.635Z,20.90
2022-12-16T06:58:18.355Z,21.27
2022-12-16T07:03:38.516Z,18.97
2022-12-16T07:08:58.816Z,15.30
2022-12-16T07:14:19.035Z,16.87
2022-12-16T07:19:39.159Z,18.40
2022-12-16T07:24:59.208Z,18.87
2022-12-16T07:30:19.238Z,21.87
2022-12-16T07:35:39.403Z,19.47
2022-12-16T07:40:59.431Z,20.63
2022-12-16T07:46:19.665Z,19.30
2022-12-16T07:51:39.501Z,26.10
2022-12-16T07:56:59.761Z,27.13
2022-12-16T08:02:20.177Z,20.47
2022-12-16T08:07:40.292Z,20.67
2022-12-16T08:13:00.348Z,19.37
2022-12-16T08:18:21.124Z,25.97
2022-12-16T08:23:41.131Z,28.93
2022-12-16T08:29:20.281Z,27.03
2022-12-16T08:34:41.375Z,26.33
2022-12-16T08:40:18.039Z,27.60
2022-12-16T08:45:41.947Z,20.13
2022-12-16T08:51:01.895Z,26.73
2022-12-16T08:56:22.104Z,21.10
2022-12-16T09:01:42.334Z,21.07
2022-12-16T09:07:02.223Z,24.83
2022-12-16T09:12:22.338Z,25.77
2022-12-16T09:17:42.552Z,23.70
2022-12-16T09:23:02.443Z,23.47
2022-12-16T09:28:42.315Z,18.73
2022-12-16T09:34:02.481Z,19.03
2022-12-16T09:39:22.361Z,21.27
2022-12-16T09:44:54.592Z,20.63
2022-12-16T09:50:29.259Z,19.00
2022-12-16T09:55:55.118Z,23.30
2022-12-16T10:01:17.432Z,19.70
2022-12-16T10:07:10.163Z,18.97
2022-12-16T10:12:42.275Z,18.13
2022-12-16T10:18:12.796Z,20.77
2022-12-16T10:23:46.343Z,17.53
2022-12-16T10:29:12.001Z,15.80
2022-12-16T10:34:53.986Z,13.93
2022-12-16T10:40:17.634Z,12.73
2022-12-16T10:45:47.332Z,13.70
2022-12-16T10:51:07.438Z,14.07
2022-12-16T10:56:33.300Z,17.07
2022-12-16T11:01:53.628Z,13.13
2022-12-16T11:07:14.418Z,13.23
2022-12-16T11:12:49.965Z,12.13
2022-12-16T11:18:32.501Z,16.20
2022-12-16T11:23:52.287Z,17.37
2022-12-16T11:29:35.061Z,12.50
2022-12-16T11:34:55.710Z,11.80
2022-12-16T11:40:16.311Z,13.40
2022-12-16T11:45:39.500Z,14.20
2022-12-16T11:51:13.141Z,13.10
2022-12-16T11:56:42.409Z,16.00
2022-12-16T12:02:16.635Z,15.70
2022-12-16T12:08:02.402Z,10.77
2022-12-16T12:13:46.329Z,13.73
2022-12-16T12:19:22.154Z,13.40
2022-12-16T12:24:58.203Z,17.60
2022-12-16T12:30:28.962Z,9.73
2022-12-16T12:35:58.408Z,12.20
2022-12-16T12:41:37.126Z,12.67
2022-12-16T12:47:07.926Z,11.97
2022-12-16T12:52:28.836Z,14.03
2022-12-16T12:57:51.391Z,13.63
2022-12-16T13:03:21.446Z,15.03
2022-12-16T13:08:51.688Z,15.27
2022-12-16T13:14:11.575Z,11.27
2022-12-16T13:19:50.075Z,16.00
2022-12-16T13:25:10.242Z,18.23
2022-12-16T13:30:30.472Z,11.07
2022-12-16T13:36:04.380Z,13.40
2022-12-16T13:41:44.654Z,9.98
2022-12-16T13:47:05.965Z,13.10
2022-12-16T13:52:35.149Z,11.53
2022-12-16T13:57:59.829Z,10.07
2022-12-16T14:03:23.140Z,10.30
2022-12-16T14:08:43.945Z,12.03
2022-12-16T14:14:22.425Z,13.07
2022-12-16T14:19:45.636Z,12.47
2022-12-16T14:25:05.731Z,13.87
2022-12-16T14:30:39.248Z,15.33
2022-12-16T14:36:08.454Z,12.87
2022-12-16T14:41:33.865Z,19.90
2022-12-16T14:46:55.070Z,15.97
2022-12-16T14:52:15.104Z,16.80
2022-12-16T14:57:37.815Z,18.33
2022-12-16T15:03:04.347Z,16.47
2022-12-16T15:08:28.145Z,17.07
2022-12-16T15:13:48.821Z,20.98
2022-12-16T15:19:17.404Z,16.37
2022-12-16T15:24:41.285Z,17.97
2022-12-16T15:30:01.459Z,21.67
2022-12-16T15:35:21.464Z,19.43
2022-12-16T15:40:46.110Z,24.57
2022-12-16T15:46:13.112Z,23.23
2022-12-16T15:51:51.261Z,20.73
2022-12-16T15:57:11.483Z,23.03
2022-12-16T16:02:44.695Z,21.57
2022-12-16T16:08:05.772Z,21.40
2022-12-16T16:13:27.223Z,23.57
2022-12-16T16:18:47.356Z,21.60
2022-12-16T16:24:07.378Z,25.50
2022-12-16T16:29:29.170Z,21.03
2022-12-16T16:34:49.342Z,27.10
2022-12-16T16:40:09.524Z,28.53
2022-12-16T16:45:31.091Z,28.37
2022-12-16T16:50:51.365Z,27.90
2022-12-16T16:56:18.175Z,27.37
2022-12-16T17:01:39.973Z,29.33
2022-12-16T17:07:00.027Z,23.67
2022-12-16T17:12:20.192Z,35.13
2022-12-16T17:17:40.443Z,21.67
2022-12-16T17:23:00.518Z,21.23
2022-12-16T17:28:21.260Z,22.50
2022-12-16T17:33:41.176Z,21.70
2022-12-16T17:39:02.962Z,25.30
2022-12-16T17:44:23.115Z,25.27
2022-12-16T17:49:43.253Z,26.70
2022-12-16T17:55:03.086Z,32.27
2022-12-16T18:00:23.827Z,36.00
2022-12-16T18:05:44.809Z,32.30
2022-12-16T18:11:04.968Z,34.33
2022-12-16T18:16:25.245Z,38.60
2022-12-16T18:21:45.471Z,35.83
2022-12-16T18:27:05.602Z,30.80
2022-12-16T18:32:28.307Z,33.37
2022-12-16T18:37:50.816Z,33.33
2022-12-16T18:43:10.593Z,37.20
2022-12-16T18:48:30.403Z,44.47
2022-12-16T18:53:50.474Z,42.40
2022-12-16T18:59:12.631Z,60.37
2022-12-16T19:04:32.744Z,71.80
2022-12-16T19:09:52.921Z,56.27
2022-12-16T19:15:12.956Z,57.37
2022-12-16T19:20:33.411Z,57.83
2022-12-16T19:25:53.429Z,55.23
2022-12-16T19:31:14.558Z,49.93
2022-12-16T19:36:34.728Z,46.10
2022-12-16T19:41:56.208Z,43.63
2022-12-16T19:47:16.391Z,50.07
2022-12-16T19:52:36.579Z,36.90
2022-12-16T19:57:56.585Z,27.57
2022-12-16T20:03:16.896Z,29.43
2022-12-16T20:08:50.987Z,53.13
2022-12-16T20:14:15.008Z,26.77
2022-12-16T20:19:34.988Z,39.87
2022-12-16T20:24:56.289Z,90.10
2022-12-16T20:30:16.627Z,32.50
2022-12-16T20:35:56.603Z,43.13
2022-12-16T20:41:21.784Z,80.60
2022-12-16T20:46:41.831Z,35.63
2022-12-16T20:52:01.691Z,43.57
2022-12-16T20:57:22.066Z,34.07
2022-12-16T21:02:42.190Z,32.37
2022-12-16T21:08:02.651Z,37.87
2022-12-16T21:13:31.771Z,34.80
2022-12-16T21:18:51.843Z,35.90
2022-12-16T21:24:12.082Z,33.97
2022-12-16T21:29:32.066Z,40.47
2022-12-16T21:35:06.047Z,42.17
2022-12-16T21:40:27.035Z,38.08
2022-12-16T21:45:47.187Z,39.57
2022-12-16T21:51:13.443Z,40.60
2022-12-16T21:56:33.787Z,41.17
2022-12-16T22:01:53.945Z,37.90
2022-12-16T22:07:16.498Z,48.87
2022-12-16T22:12:36.404Z,45.70
2022-12-16T22:17:58.511Z,58.40
2022-12-16T22:23:36.884Z,42.33
2022-12-16T22:28:57.018Z,132.13
2022-12-16T22:34:17.967Z,80.50
2022-12-16T22:39:44.440Z,53.57
2022-12-16T22:45:04.932Z,127.13
2022-12-16T22:50:25.371Z,62.47
2022-12-16T22:55:45.572Z,48.73
2022-12-16T23:01:05.795Z,41.97
2022-12-16T23:06:27.998Z,45.57
2022-12-16T23:11:56.594Z,56.27
2022-12-16T23:17:17.023Z,50.63
2022-12-16T23:22:37.170Z,42.33
2022-12-16T23:27:57.320Z,57.80
2022-12-16T23:33:18.912Z,61.40
2022-12-16T23:38:39.161Z,39.80
2022-12-16T23:43:59.031Z,40.63
2022-12-16T23:49:18.846Z,41.80
2022-12-16T23:54:39.014Z,47.83
2022-12-16T23:59:59.423Z,66.77
